createdAt,value
2022-08-20T00:00:51.752Z,5.80
2022-08-20T00:01:52.788Z,5.30
2022-08-20T00:02:51.731Z,5.50
2022-08-20T00:03:53.250Z,6.10
2022-08-20T00:04:51.702Z,5.30
2022-08-20T00:05:51.683Z,5.50
2022-08-20T00:06:52.672Z,5.60
2022-08-20T00:07:51.715Z,5.90
2022-08-20T00:08:51.885Z,5.20
2022-08-20T00:09:51.632Z,6.20
2022-08-20T00:10:55.602Z,6.30
2022-08-20T00:11:52.112Z,5.50
2022-08-20T00:12:51.733Z,6.20
2022-08-20T00:13:51.623Z,6.20
2022-08-20T00:14:51.572Z,5.50
2022-08-20T00:15:51.553Z,6.50
2022-08-20T00:16:51.653Z,5.90
2022-08-20T00:17:51.639Z,6.10
2022-08-20T00:18:51.562Z,6.20
2022-08-20T00:19:51.501Z,6.50
2022-08-20T00:20:51.512Z,5.80
2022-08-20T00:21:51.473Z,6.10
2022-08-20T00:22:52.564Z,6.60
2022-08-20T00:23:51.475Z,6.60
2022-08-20T00:24:51.439Z,5.70
2022-08-20T00:25:51.443Z,6.10
2022-08-20T00:26:52.392Z,6.10
2022-08-20T00:27:51.449Z,7.20
2022-08-20T00:28:51.414Z,6.20
2022-08-20T00:29:51.435Z,6.90
2022-08-20T00:30:51.364Z,6.70
2022-08-20T00:31:51.344Z,6.60
2022-08-20T00:32:51.343Z,6.80
2022-08-20T00:33:51.346Z,6.60
2022-08-20T00:34:51.314Z,7.70
2022-08-20T00:35:51.285Z,6.70
2022-08-20T00:36:51.287Z,6.50
2022-08-20T00:37:51.292Z,6.50
2022-08-20T00:38:51.284Z,6.60
2022-08-20T00:39:51.303Z,6.90
2022-08-20T00:40:51.264Z,6.10
2022-08-20T00:41:51.216Z,6.20
2022-08-20T00:42:51.209Z,6.60
2022-08-20T00:43:51.226Z,6.90
2022-08-20T00:44:51.175Z,6.00
2022-08-20T00:45:51.156Z,6.80
2022-08-20T00:46:51.172Z,6.10
2022-08-20T00:47:51.750Z,5.80
2022-08-20T00:48:51.126Z,6.00
2022-08-20T00:49:51.106Z,6.60
2022-08-20T00:50:51.096Z,6.70
2022-08-20T00:51:51.086Z,6.20
2022-08-20T00:52:51.086Z,7.20
2022-08-20T00:53:51.098Z,6.50
2022-08-20T00:54:51.046Z,6.30
2022-08-20T00:55:51.034Z,6.60
2022-08-20T00:56:51.027Z,6.30
2022-08-20T00:58:00.725Z,7.20
2022-08-20T00:58:52.026Z,6.50
2022-08-20T00:59:50.977Z,6.30
2022-08-20T01:00:50.979Z,6.60
2022-08-20T01:01:56.037Z,6.70
2022-08-20T01:02:52.016Z,6.30
2022-08-20T01:03:51.001Z,6.50
2022-08-20T01:04:50.916Z,6.60
2022-08-20T01:05:50.910Z,6.10
2022-08-20T01:06:50.897Z,6.90
2022-08-20T01:07:50.886Z,6.00
2022-08-20T01:08:50.897Z,5.70
2022-08-20T01:09:59.138Z,6.60
2022-08-20T01:10:51.839Z,6.50
2022-08-20T01:11:50.828Z,6.70
2022-08-20T01:12:55.652Z,6.40
2022-08-20T01:13:51.839Z,6.40
2022-08-20T01:14:50.787Z,6.40
2022-08-20T01:15:50.789Z,6.20
2022-08-20T01:16:50.768Z,6.40
2022-08-20T01:17:50.748Z,6.30
2022-08-20T01:18:50.763Z,5.70
2022-08-20T01:19:50.719Z,6.60
2022-08-20T01:20:50.709Z,7.00
2022-08-20T01:21:51.954Z,6.10
2022-08-20T01:22:50.678Z,6.20
2022-08-20T01:23:50.699Z,6.30
2022-08-20T01:24:50.659Z,7.10
2022-08-20T01:25:50.660Z,6.10
2022-08-20T01:26:50.628Z,6.50
2022-08-20T01:27:55.296Z,5.80
2022-08-20T01:28:51.649Z,5.90
2022-08-20T01:29:50.599Z,6.20
2022-08-20T01:30:50.581Z,6.10
2022-08-20T01:31:50.572Z,6.00
2022-08-20T01:32:50.570Z,6.40
2022-08-20T01:33:50.866Z,6.00
2022-08-20T01:34:50.530Z,6.00
2022-08-20T01:35:50.510Z,6.30
2022-08-20T01:36:50.508Z,6.50
2022-08-20T01:37:50.490Z,6.70
2022-08-20T01:38:54.548Z,6.60
2022-08-20T01:39:51.470Z,6.40
2022-08-20T01:40:50.490Z,7.10
2022-08-20T01:41:50.469Z,6.50
2022-08-20T01:42:58.881Z,6.80
2022-08-20T01:43:51.438Z,7.10
2022-08-20T01:44:50.413Z,6.70
2022-08-20T01:45:50.388Z,6.40
2022-08-20T01:46:50.370Z,5.80
2022-08-20T01:47:50.381Z,7.10
2022-08-20T01:48:50.381Z,7.00
2022-08-20T01:49:50.337Z,6.40
2022-08-20T01:50:51.082Z,6.50
2022-08-20T01:51:50.310Z,7.00
2022-08-20T01:52:50.422Z,6.40
2022-08-20T01:53:50.311Z,5.70
2022-08-20T01:54:50.273Z,7.30
2022-08-20T01:55:50.263Z,6.20
2022-08-20T01:56:50.371Z,7.50
2022-08-20T01:57:50.233Z,8.40
2022-08-20T01:58:50.242Z,8.60
2022-08-20T01:59:51.219Z,8.80
2022-08-20T02:00:50.229Z,8.50
2022-08-20T02:01:50.245Z,8.20
2022-08-20T02:02:50.172Z,9.20
2022-08-20T02:03:50.203Z,8.70
2022-08-20T02:04:50.142Z,9.10
2022-08-20T02:05:50.122Z,8.30
2022-08-20T02:06:56.751Z,8.90
2022-08-20T02:07:51.101Z,8.50
2022-08-20T02:08:50.113Z,9.20
2022-08-20T02:09:50.073Z,8.70
2022-08-20T02:10:50.065Z,9.10
2022-08-20T02:11:50.053Z,8.90
2022-08-20T02:12:50.033Z,9.20
2022-08-20T02:13:50.053Z,8.50
2022-08-20T02:14:50.032Z,8.80
2022-08-20T02:15:50.013Z,8.20
2022-08-20T02:16:55.439Z,9.20
2022-08-20T02:17:51.060Z,9.50
2022-08-20T02:18:49.974Z,9.10
2022-08-20T02:19:49.945Z,8.60
2022-08-20T02:20:49.925Z,9.40
2022-08-20T02:21:49.914Z,10.00
2022-08-20T02:22:50.549Z,9.40
2022-08-20T02:23:49.921Z,9.00
2022-08-20T02:24:49.884Z,9.40
2022-08-20T02:25:49.881Z,8.50
2022-08-20T02:26:49.848Z,8.70
2022-08-20T02:27:49.901Z,8.70
2022-08-20T02:28:49.855Z,9.20
2022-08-20T02:29:49.839Z,8.70
2022-08-20T02:30:49.804Z,8.20
2022-08-20T02:32:25.065Z,9.30
2022-08-20T02:32:50.773Z,9.10
2022-08-20T02:34:18.139Z,9.50
2022-08-20T02:34:50.754Z,8.90
2022-08-20T02:35:49.735Z,8.70
2022-08-20T02:36:50.075Z,7.80
2022-08-20T02:37:49.757Z,8.40
2022-08-20T02:38:49.727Z,8.80
2022-08-20T02:39:49.721Z,9.10
2022-08-20T02:40:49.665Z,8.80
2022-08-20T02:41:49.670Z,8.50
2022-08-20T02:42:49.636Z,7.90
2022-08-20T02:43:49.678Z,8.70
2022-08-20T02:44:49.621Z,8.90
2022-08-20T02:45:49.612Z,8.60
2022-08-20T02:46:49.597Z,8.60
2022-08-20T02:47:49.602Z,7.80
2022-08-20T02:48:49.587Z,8.50
2022-08-20T02:49:49.556Z,8.20
2022-08-20T02:50:49.538Z,7.70
2022-08-20T02:51:49.537Z,9.00
2022-08-20T02:52:51.671Z,7.80
2022-08-20T02:53:49.528Z,9.10
2022-08-20T02:54:49.486Z,8.50
2022-08-20T02:55:49.477Z,8.20
2022-08-20T02:56:49.460Z,7.80
2022-08-20T02:57:49.513Z,7.60
2022-08-20T02:58:49.478Z,7.00
2022-08-20T02:59:49.429Z,7.30
2022-08-20T03:00:49.407Z,7.70
2022-08-20T03:01:59.420Z,8.40
2022-08-20T03:02:50.396Z,7.70
2022-08-20T03:03:49.398Z,8.40
2022-08-20T03:04:49.358Z,8.10
2022-08-20T03:05:49.348Z,7.90
2022-08-20T03:06:49.329Z,7.80
2022-08-20T03:07:49.333Z,7.40
2022-08-20T03:08:49.328Z,7.60
2022-08-20T03:09:49.300Z,6.30
2022-08-20T03:10:49.278Z,7.00
2022-08-20T03:11:49.270Z,7.50
2022-08-20T03:12:49.266Z,5.70
2022-08-20T03:13:49.359Z,6.00
2022-08-20T03:14:49.236Z,6.30
2022-08-20T03:15:49.226Z,6.00
2022-08-20T03:16:49.200Z,6.30
2022-08-20T03:17:49.225Z,6.60
2022-08-20T03:18:52.070Z,6.10
2022-08-20T03:19:49.169Z,6.10
2022-08-20T03:20:52.066Z,6.10
2022-08-20T03:21:50.093Z,5.90
2022-08-20T03:22:49.122Z,6.30
2022-08-20T03:23:49.159Z,6.40
2022-08-20T03:24:49.099Z,6.00
2022-08-20T03:25:49.091Z,6.50
2022-08-20T03:26:49.070Z,5.80
2022-08-20T03:27:49.926Z,6.00
2022-08-20T03:28:50.082Z,5.20
2022-08-20T03:29:49.041Z,6.50
2022-08-20T03:30:49.049Z,5.40
2022-08-20T03:31:49.011Z,6.00
2022-08-20T03:32:48.992Z,6.90
2022-08-20T03:33:53.574Z,5.30
2022-08-20T03:34:48.974Z,6.30
2022-08-20T03:35:48.962Z,6.20
2022-08-20T03:36:48.941Z,6.60
2022-08-20T03:37:48.946Z,6.10
2022-08-20T03:38:48.941Z,6.00
2022-08-20T03:39:48.983Z,6.20
2022-08-20T03:40:48.899Z,6.30
2022-08-20T03:41:48.892Z,6.80
2022-08-20T03:42:48.862Z,6.70
2022-08-20T03:43:48.892Z,6.30
2022-08-20T03:44:48.862Z,6.30
2022-08-20T03:45:49.832Z,6.10
2022-08-20T03:46:48.812Z,6.40
2022-08-20T03:47:48.812Z,6.80
2022-08-20T03:48:48.824Z,5.90
2022-08-20T03:49:48.740Z,6.50
2022-08-20T03:50:48.772Z,5.70
2022-08-20T03:51:57.668Z,5.70
2022-08-20T03:52:49.764Z,6.00
2022-08-20T03:53:48.703Z,6.40
2022-08-20T03:54:48.654Z,6.10
2022-08-20T03:55:54.777Z,6.70
2022-08-20T03:56:49.647Z,6.60
2022-08-20T03:57:48.628Z,7.30
2022-08-20T03:58:48.641Z,6.50
2022-08-20T03:59:54.637Z,6.40
2022-08-20T04:00:49.584Z,6.60
2022-08-20T04:01:48.666Z,6.30
2022-08-20T04:02:48.555Z,6.20
2022-08-20T04:03:52.117Z,6.50
2022-08-20T04:04:49.529Z,6.80
2022-08-20T04:05:48.520Z,6.90
2022-08-20T04:06:48.505Z,6.90
2022-08-20T04:07:48.575Z,7.10
2022-08-20T04:08:48.505Z,6.30
2022-08-20T04:09:48.465Z,6.60
2022-08-20T04:10:48.446Z,6.50
2022-08-20T04:11:48.445Z,6.60
2022-08-20T04:12:52.719Z,6.30
2022-08-20T04:13:48.570Z,6.80
2022-08-20T04:14:48.405Z,7.20
2022-08-20T04:15:48.390Z,6.60
2022-08-20T04:16:48.967Z,6.50
2022-08-20T04:17:48.365Z,6.80
2022-08-20T04:19:01.669Z,6.80
2022-08-20T04:19:49.415Z,6.30
2022-08-20T04:20:48.525Z,7.00
2022-08-20T04:21:48.315Z,6.50
2022-08-20T04:22:52.312Z,6.50
2022-08-20T04:23:49.325Z,6.10
2022-08-20T04:24:48.452Z,6.50
2022-08-20T04:25:48.455Z,4.70
2022-08-20T04:26:48.244Z,5.20
2022-08-20T04:27:48.237Z,5.10
2022-08-20T04:28:48.383Z,3.30
2022-08-20T04:29:48.226Z,2.70
2022-08-20T04:30:51.845Z,1.70
2022-08-20T04:31:48.193Z,1.50
2022-08-20T04:32:48.168Z,1.10
2022-08-20T04:33:48.188Z,1.00
2022-08-20T04:34:48.298Z,1.10
2022-08-20T04:35:48.148Z,1.00
2022-08-20T04:36:48.157Z,0.70
2022-08-20T04:37:48.131Z,0.50
2022-08-20T04:38:50.872Z,0.70
2022-08-20T04:39:48.190Z,0.30
2022-08-20T04:40:48.058Z,0.60
2022-08-20T04:41:48.097Z,0.70
2022-08-20T04:42:48.130Z,0.40
2022-08-20T04:43:49.191Z,0.60
2022-08-20T04:44:48.130Z,0.70
2022-08-20T04:45:48.008Z,0.40
2022-08-20T04:46:47.989Z,0.60
2022-08-20T04:47:47.988Z,0.50
2022-08-20T04:48:48.782Z,0.60
2022-08-20T04:49:47.968Z,0.40
2022-08-20T04:50:47.938Z,0.60
2022-08-20T04:51:47.929Z,0.80
2022-08-20T04:52:47.910Z,0.50
2022-08-20T04:53:52.167Z,0.80
2022-08-20T04:54:48.906Z,0.70
2022-08-20T04:55:47.879Z,0.70
2022-08-20T04:56:47.872Z,0.80
2022-08-20T04:57:47.855Z,0.60
2022-08-20T04:58:47.851Z,0.70
2022-08-20T04:59:47.820Z,0.40
2022-08-20T05:00:47.846Z,0.70
2022-08-20T05:01:47.801Z,0.90
2022-08-20T05:02:47.789Z,0.60
2022-08-20T05:03:48.015Z,0.50
2022-08-20T05:04:47.760Z,0.60
2022-08-20T05:05:47.757Z,0.60
2022-08-20T05:06:47.740Z,0.70
2022-08-20T05:07:47.741Z,0.70
2022-08-20T05:08:47.743Z,0.60
2022-08-20T05:09:47.696Z,0.80
2022-08-20T05:10:47.690Z,0.60
2022-08-20T05:11:47.673Z,0.50
2022-08-20T05:12:56.849Z,0.40
2022-08-20T05:13:48.674Z,0.50
2022-08-20T05:14:47.629Z,0.60
2022-08-20T05:15:47.620Z,0.70
2022-08-20T05:16:47.602Z,0.60
2022-08-20T05:17:47.605Z,0.60
2022-08-20T05:18:51.708Z,1.00
2022-08-20T05:19:48.566Z,0.60
2022-08-20T05:20:47.552Z,0.60
2022-08-20T05:21:47.541Z,0.70
2022-08-20T05:22:47.521Z,0.70
2022-08-20T05:23:47.541Z,0.70
2022-08-20T05:24:47.493Z,0.70
2022-08-20T05:25:47.485Z,0.60
2022-08-20T05:26:47.474Z,0.70
2022-08-20T05:27:47.935Z,0.90
2022-08-20T05:28:58.759Z,0.70
2022-08-20T05:29:48.429Z,0.70
2022-08-20T05:30:47.646Z,0.70
2022-08-20T05:31:47.412Z,0.70
2022-08-20T05:32:47.392Z,1.00
2022-08-20T05:33:47.424Z,0.70
2022-08-20T05:34:47.382Z,0.70
2022-08-20T05:35:47.354Z,0.80
2022-08-20T05:36:48.248Z,0.80
2022-08-20T05:37:47.322Z,0.60
2022-08-20T05:38:49.715Z,0.60
2022-08-20T05:39:47.336Z,0.90
2022-08-20T05:40:47.293Z,1.00
2022-08-20T05:41:47.272Z,0.70
2022-08-20T05:42:47.263Z,1.00
2022-08-20T05:43:47.242Z,0.80
2022-08-20T05:44:47.263Z,0.70
2022-08-20T05:45:47.253Z,0.80
2022-08-20T05:46:47.214Z,0.90
2022-08-20T05:47:47.205Z,0.60
2022-08-20T05:48:48.183Z,0.80
2022-08-20T05:49:47.234Z,0.60
2022-08-20T05:50:47.174Z,0.70
2022-08-20T05:51:47.144Z,0.60
2022-08-20T05:52:47.136Z,0.80
2022-08-20T05:53:47.153Z,0.60
2022-08-20T05:54:47.111Z,0.90
2022-08-20T05:55:47.094Z,0.80
2022-08-20T05:56:47.082Z,1.00
2022-08-20T05:57:47.085Z,0.60
2022-08-20T05:58:47.104Z,1.00
2022-08-20T05:59:47.034Z,0.90
2022-08-20T06:00:47.055Z,0.90
2022-08-20T06:01:47.053Z,0.50
2022-08-20T06:02:47.004Z,0.80
2022-08-20T06:03:47.027Z,0.70
2022-08-20T06:04:46.983Z,0.80
2022-08-20T06:05:47.965Z,0.60
2022-08-20T06:06:47.599Z,1.00
2022-08-20T06:07:46.964Z,1.00
2022-08-20T06:08:46.965Z,1.20
2022-08-20T06:09:46.955Z,1.30
2022-08-20T06:10:46.896Z,0.90
2022-08-20T06:11:46.896Z,1.00
2022-08-20T06:12:46.873Z,1.20
2022-08-20T06:13:46.885Z,1.00
2022-08-20T06:14:46.867Z,1.00
2022-08-20T06:15:46.835Z,1.00
2022-08-20T06:16:57.113Z,1.00
2022-08-20T06:17:58.251Z,1.20
2022-08-20T06:18:47.826Z,1.00
2022-08-20T06:19:46.917Z,1.40
2022-08-20T06:20:46.777Z,1.20
2022-08-20T06:21:46.766Z,1.10
2022-08-20T06:22:46.757Z,1.60
2022-08-20T06:23:56.685Z,1.60
2022-08-20T06:24:47.716Z,1.70
2022-08-20T06:25:46.709Z,1.50
2022-08-20T06:26:46.700Z,1.90
2022-08-20T06:27:46.676Z,2.30
2022-08-20T06:28:46.726Z,2.20
2022-08-20T06:29:46.650Z,1.70
2022-08-20T06:30:46.652Z,2.40
2022-08-20T06:31:46.644Z,2.60
2022-08-20T06:32:46.620Z,3.10
2022-08-20T06:33:46.598Z,2.60
2022-08-20T06:34:50.423Z,3.40
2022-08-20T06:35:46.641Z,3.10
2022-08-20T06:36:46.561Z,3.20
2022-08-20T06:37:46.564Z,4.20
2022-08-20T06:38:46.557Z,3.90
2022-08-20T06:39:46.572Z,3.90
2022-08-20T06:40:46.534Z,3.80
2022-08-20T06:41:46.619Z,3.70
2022-08-20T06:42:48.780Z,3.70
2022-08-20T06:43:46.491Z,4.50
2022-08-20T06:44:46.490Z,4.70
2022-08-20T06:45:46.477Z,4.20
2022-08-20T06:46:46.456Z,4.60
2022-08-20T06:47:46.408Z,4.40
2022-08-20T06:48:46.417Z,3.90
2022-08-20T06:49:46.418Z,4.60
2022-08-20T06:50:48.022Z,4.90
2022-08-20T06:51:46.432Z,4.90
2022-08-20T06:52:52.856Z,5.30
2022-08-20T06:53:47.339Z,4.20
2022-08-20T06:54:46.367Z,4.30
2022-08-20T06:55:48.114Z,4.30
2022-08-20T06:56:46.320Z,4.70
2022-08-20T06:57:46.279Z,4.90
2022-08-20T06:58:46.280Z,5.40
2022-08-20T06:59:54.024Z,4.10
2022-08-20T07:00:47.321Z,4.50
2022-08-20T07:01:46.278Z,4.60
2022-08-20T07:02:46.229Z,5.20
2022-08-20T07:03:54.894Z,4.90
2022-08-20T07:04:47.227Z,4.90
2022-08-20T07:05:46.180Z,4.90
2022-08-20T07:06:46.255Z,5.20
2022-08-20T07:07:46.184Z,4.80
2022-08-20T07:08:46.180Z,5.30
2022-08-20T07:09:46.159Z,4.80
2022-08-20T07:10:46.131Z,4.50
2022-08-20T07:11:46.124Z,4.10
2022-08-20T07:12:46.102Z,4.30
2022-08-20T07:13:46.171Z,5.40
2022-08-20T07:14:46.071Z,4.40
2022-08-20T07:15:46.049Z,4.60
2022-08-20T07:16:46.042Z,4.10
2022-08-20T07:17:46.065Z,3.90
2022-08-20T07:18:46.053Z,4.00
2022-08-20T07:19:46.014Z,4.00
2022-08-20T07:20:46.005Z,3.40
2022-08-20T07:21:45.980Z,3.60
2022-08-20T07:22:45.966Z,3.90
2022-08-20T07:23:45.972Z,3.50
2022-08-20T07:24:48.994Z,3.60
2022-08-20T07:25:45.924Z,3.50
2022-08-20T07:26:45.955Z,3.10
2022-08-20T07:27:45.893Z,3.40
2022-08-20T07:28:45.883Z,3.50
2022-08-20T07:29:45.895Z,2.90
2022-08-20T07:30:56.693Z,3.60
2022-08-20T07:31:48.093Z,3.30
2022-08-20T07:32:45.952Z,3.00
2022-08-20T07:33:45.984Z,2.60
2022-08-20T07:34:46.222Z,2.80
2022-08-20T07:35:45.794Z,3.60
2022-08-20T07:36:46.714Z,3.20
2022-08-20T07:37:46.115Z,3.00
2022-08-20T07:38:45.764Z,3.40
2022-08-20T07:39:45.867Z,3.40
2022-08-20T07:40:45.735Z,3.80
2022-08-20T07:41:56.461Z,3.90
2022-08-20T07:42:46.927Z,3.40
2022-08-20T07:43:45.902Z,3.60
2022-08-20T07:44:45.792Z,3.40
2022-08-20T07:45:49.762Z,3.10
2022-08-20T07:46:46.817Z,3.00
2022-08-20T07:47:45.646Z,3.40
2022-08-20T07:48:45.666Z,3.10
2022-08-20T07:49:46.208Z,3.00
2022-08-20T07:50:45.606Z,2.70
2022-08-20T07:51:45.607Z,3.20
2022-08-20T07:52:45.577Z,3.50
2022-08-20T07:53:45.618Z,3.40
2022-08-20T07:54:45.593Z,2.80
2022-08-20T07:55:58.796Z,2.20
2022-08-20T07:56:46.530Z,2.50
2022-08-20T07:57:45.507Z,2.00
2022-08-20T07:58:45.507Z,1.80
2022-08-20T07:59:45.523Z,2.30
2022-08-20T08:00:45.503Z,2.30
2022-08-20T08:01:45.460Z,1.80
2022-08-20T08:02:45.448Z,1.70
2022-08-20T08:03:50.381Z,1.40
2022-08-20T08:04:46.461Z,1.20
2022-08-20T08:05:45.418Z,1.20
2022-08-20T08:06:45.402Z,0.60
2022-08-20T08:07:45.432Z,0.80
2022-08-20T08:08:45.370Z,0.60
2022-08-20T08:09:45.379Z,0.80
2022-08-20T08:10:45.406Z,0.60
2022-08-20T08:11:47.713Z,0.70
2022-08-20T08:12:47.177Z,0.60
2022-08-20T08:13:45.319Z,0.60
2022-08-20T08:14:45.330Z,0.80
2022-08-20T08:15:45.290Z,0.70
2022-08-20T08:16:45.287Z,0.90
2022-08-20T08:17:45.263Z,1.30
2022-08-20T08:18:45.250Z,1.10
2022-08-20T08:19:45.265Z,1.40
2022-08-20T08:20:46.761Z,1.50
2022-08-20T08:21:45.202Z,1.70
2022-08-20T08:22:45.210Z,2.10
2022-08-20T08:23:45.190Z,2.00
2022-08-20T08:24:56.917Z,2.10
2022-08-20T08:25:46.180Z,2.30
2022-08-20T08:26:45.150Z,2.20
2022-08-20T08:27:45.131Z,2.50
2022-08-20T08:28:45.131Z,2.40
2022-08-20T08:29:45.129Z,2.60
2022-08-20T08:30:45.091Z,2.40
2022-08-20T08:31:45.072Z,2.40
2022-08-20T08:32:45.101Z,2.30
2022-08-20T08:33:45.063Z,2.40
2022-08-20T08:34:45.070Z,1.90
2022-08-20T08:35:45.052Z,1.70
2022-08-20T08:36:45.131Z,1.60
2022-08-20T08:37:45.052Z,2.50
2022-08-20T08:38:45.030Z,2.20
2022-08-20T08:39:45.049Z,2.70
2022-08-20T08:40:45.069Z,3.00
2022-08-20T08:41:44.993Z,2.90
2022-08-20T08:42:44.953Z,3.40
2022-08-20T08:43:44.958Z,3.30
2022-08-20T08:44:45.003Z,3.70
2022-08-20T08:45:44.963Z,3.60
2022-08-20T08:46:49.248Z,3.40
2022-08-20T08:47:44.871Z,4.10
2022-08-20T08:48:44.864Z,4.10
2022-08-20T08:49:44.863Z,4.40
2022-08-20T08:50:54.299Z,4.70
2022-08-20T08:51:45.814Z,4.00
2022-08-20T08:52:44.814Z,4.50
2022-08-20T08:53:44.793Z,4.00
2022-08-20T08:54:44.815Z,4.40
2022-08-20T08:55:44.784Z,4.90
2022-08-20T08:56:50.104Z,4.40
2022-08-20T08:57:45.737Z,4.70
2022-08-20T08:58:44.734Z,4.00
2022-08-20T08:59:52.075Z,4.20
2022-08-20T09:00:52.807Z,4.50
2022-08-20T09:01:56.181Z,4.80
2022-08-20T09:02:45.749Z,4.60
2022-08-20T09:03:44.665Z,4.30
2022-08-20T09:04:44.756Z,4.00
2022-08-20T09:05:44.639Z,4.50
2022-08-20T09:06:44.698Z,4.30
2022-08-20T09:07:44.617Z,4.70
2022-08-20T09:08:44.604Z,4.30
2022-08-20T09:09:44.617Z,4.10
2022-08-20T09:10:44.578Z,3.70
2022-08-20T09:11:44.556Z,3.10
2022-08-20T09:12:47.656Z,3.00
2022-08-20T09:13:44.544Z,3.60
2022-08-20T09:14:44.577Z,3.80
2022-08-20T09:15:44.507Z,3.40
2022-08-20T09:16:52.906Z,4.20
2022-08-20T09:17:45.486Z,3.30
2022-08-20T09:18:44.487Z,2.60
2022-08-20T09:19:44.499Z,3.30
2022-08-20T09:20:44.450Z,3.60
2022-08-20T09:21:44.435Z,3.20
2022-08-20T09:22:44.419Z,3.30
2022-08-20T09:23:44.408Z,3.00
2022-08-20T09:24:44.509Z,3.50
2022-08-20T09:25:44.379Z,3.30
2022-08-20T09:26:44.379Z,2.80
2022-08-20T09:27:44.351Z,3.00
2022-08-20T09:28:44.703Z,2.80
2022-08-20T09:29:45.744Z,3.00
2022-08-20T09:30:44.398Z,2.40
2022-08-20T09:31:44.301Z,3.10
2022-08-20T09:32:44.290Z,2.80
2022-08-20T09:33:44.280Z,3.00
2022-08-20T09:34:44.321Z,3.20
2022-08-20T09:35:44.391Z,3.40
2022-08-20T09:36:44.238Z,3.70
2022-08-20T09:37:44.882Z,4.00
2022-08-20T09:38:44.321Z,3.60
2022-08-20T09:39:44.255Z,4.20
2022-08-20T09:40:44.273Z,3.70
2022-08-20T09:41:44.168Z,3.00
2022-08-20T09:42:44.151Z,3.50
2022-08-20T09:43:44.400Z,3.30
2022-08-20T09:44:44.361Z,3.40
2022-08-20T09:45:44.269Z,3.20
2022-08-20T09:46:44.123Z,3.40
2022-08-20T09:48:10.178Z,4.20
2022-08-20T09:48:45.188Z,3.90
2022-08-20T09:49:44.110Z,3.50
2022-08-20T09:50:44.056Z,3.30
2022-08-20T09:51:44.053Z,3.50
2022-08-20T09:52:44.026Z,3.30
2022-08-20T09:53:44.022Z,3.70
2022-08-20T09:54:46.674Z,3.70
2022-08-20T09:55:43.997Z,3.60
2022-08-20T09:56:43.986Z,3.70
2022-08-20T09:57:43.995Z,3.30
2022-08-20T09:58:43.945Z,3.60
2022-08-20T09:59:43.986Z,3.50
2022-08-20T10:00:43.977Z,4.10
2022-08-20T10:01:43.968Z,3.80
2022-08-20T10:02:43.935Z,3.90
2022-08-20T10:03:43.886Z,3.90
2022-08-20T10:04:43.898Z,3.10
2022-08-20T10:05:43.867Z,3.80
2022-08-20T10:06:43.847Z,3.30
2022-08-20T10:07:43.847Z,4.10
2022-08-20T10:08:43.837Z,4.00
2022-08-20T10:09:43.837Z,3.30
2022-08-20T10:10:43.788Z,3.60
2022-08-20T10:11:43.787Z,3.60
2022-08-20T10:12:43.771Z,3.40
2022-08-20T10:13:43.756Z,2.40
2022-08-20T10:14:43.759Z,2.70
2022-08-20T10:15:44.065Z,2.50
2022-08-20T10:16:43.720Z,2.50
2022-08-20T10:17:43.728Z,3.10
2022-08-20T10:18:43.681Z,2.90
2022-08-20T10:19:43.706Z,2.30
2022-08-20T10:20:43.694Z,2.80
2022-08-20T10:21:43.652Z,2.80
2022-08-20T10:22:43.633Z,2.60
2022-08-20T10:23:43.623Z,2.50
2022-08-20T10:24:43.630Z,2.80
2022-08-20T10:25:43.603Z,2.80
2022-08-20T10:26:43.589Z,2.40
2022-08-20T10:27:43.571Z,1.80
2022-08-20T10:28:43.556Z,2.30
2022-08-20T10:29:46.878Z,1.90
2022-08-20T10:30:43.542Z,2.00
2022-08-20T10:31:43.519Z,2.70
2022-08-20T10:32:43.501Z,2.50
2022-08-20T10:33:43.492Z,2.30
2022-08-20T10:34:43.519Z,2.10
2022-08-20T10:35:43.468Z,2.70
2022-08-20T10:36:43.443Z,2.30
2022-08-20T10:37:43.433Z,2.10
2022-08-20T10:38:43.421Z,2.20
2022-08-20T10:39:43.491Z,2.10
2022-08-20T10:40:46.135Z,2.20
2022-08-20T10:41:44.424Z,2.20
2022-08-20T10:42:43.364Z,2.40
2022-08-20T10:43:43.384Z,2.50
2022-08-20T10:44:43.365Z,2.20
2022-08-20T10:45:43.443Z,2.10
2022-08-20T10:46:43.305Z,1.70
2022-08-20T10:47:43.306Z,2.70
2022-08-20T10:48:43.505Z,2.50
2022-08-20T10:49:43.307Z,2.30
2022-08-20T10:50:43.277Z,2.50
2022-08-20T10:51:43.246Z,2.30
2022-08-20T10:52:43.247Z,2.50
2022-08-20T10:53:43.218Z,2.30
2022-08-20T10:54:43.275Z,2.30
2022-08-20T10:55:43.465Z,2.40
2022-08-20T10:56:43.267Z,2.10
2022-08-20T10:57:51.232Z,2.70
2022-08-20T10:58:44.585Z,2.80
2022-08-20T10:59:43.378Z,2.20
2022-08-20T11:00:43.229Z,2.20
2022-08-20T11:01:43.386Z,2.30
2022-08-20T11:02:43.098Z,1.90
2022-08-20T11:03:43.299Z,2.10
2022-08-20T11:04:43.474Z,2.70
2022-08-20T11:05:43.229Z,2.20
2022-08-20T11:06:43.056Z,2.20
2022-08-20T11:07:49.940Z,2.10
2022-08-20T11:08:44.143Z,2.30
2022-08-20T11:09:43.179Z,1.90
2022-08-20T11:10:43.000Z,2.10
2022-08-20T11:11:43.101Z,1.70
2022-08-20T11:12:44.000Z,1.60
2022-08-20T11:13:42.961Z,2.20
2022-08-20T11:14:42.941Z,1.70
2022-08-20T11:15:43.189Z,1.90
2022-08-20T11:16:43.098Z,1.30
2022-08-20T11:17:42.911Z,1.50
2022-08-20T11:18:46.875Z,1.70
2022-08-20T11:19:42.882Z,1.20
2022-08-20T11:20:42.892Z,1.50
2022-08-20T11:21:42.862Z,1.00
2022-08-20T11:22:42.884Z,1.20
2022-08-20T11:23:42.834Z,1.30
2022-08-20T11:24:43.865Z,1.40
2022-08-20T11:25:42.833Z,1.50
2022-08-20T11:26:42.854Z,1.10
2022-08-20T11:27:42.916Z,1.10
2022-08-20T11:28:42.764Z,1.10
2022-08-20T11:29:42.771Z,1.10
2022-08-20T11:30:42.856Z,1.20
2022-08-20T11:31:42.725Z,0.90
2022-08-20T11:32:42.714Z,1.00
2022-08-20T11:33:42.701Z,1.00
2022-08-20T11:34:42.685Z,1.20
2022-08-20T11:35:48.633Z,1.30
2022-08-20T11:36:43.709Z,1.10
2022-08-20T11:37:42.651Z,1.20
2022-08-20T11:38:42.628Z,1.20
2022-08-20T11:39:42.681Z,1.50
2022-08-20T11:40:42.610Z,1.50
2022-08-20T11:41:45.829Z,1.60
2022-08-20T11:43:04.338Z,1.90
2022-08-20T11:43:59.541Z,1.60
2022-08-20T11:44:43.587Z,1.70
2022-08-20T11:45:42.551Z,1.60
2022-08-20T11:46:42.580Z,1.60
2022-08-20T11:47:42.517Z,1.70
2022-08-20T11:48:42.502Z,1.40
2022-08-20T11:49:42.888Z,1.50
2022-08-20T11:50:42.508Z,1.90
2022-08-20T11:51:50.173Z,2.10
2022-08-20T11:52:43.449Z,2.30
2022-08-20T11:53:42.439Z,2.20
2022-08-20T11:54:42.450Z,2.50
2022-08-20T11:55:42.419Z,2.50
2022-08-20T11:56:42.389Z,2.30
2022-08-20T11:57:42.506Z,2.70
2022-08-20T11:58:42.370Z,2.10
2022-08-20T11:59:42.389Z,2.80
2022-08-20T12:00:43.141Z,2.20
2022-08-20T12:01:42.329Z,2.50
2022-08-20T12:02:43.389Z,2.60
2022-08-20T12:03:42.311Z,2.30
2022-08-20T12:04:42.320Z,2.50
2022-08-20T12:05:42.282Z,2.90
2022-08-20T12:06:42.273Z,2.50
2022-08-20T12:07:42.260Z,2.90
2022-08-20T12:08:42.428Z,3.10
2022-08-20T12:09:43.102Z,2.70
2022-08-20T12:10:43.212Z,3.00
2022-08-20T12:11:42.283Z,2.60
2022-08-20T12:12:42.421Z,2.70
2022-08-20T12:13:48.523Z,3.10
2022-08-20T12:14:43.192Z,3.20
2022-08-20T12:15:42.164Z,2.80
2022-08-20T12:16:42.133Z,2.80
2022-08-20T12:17:42.192Z,2.40
2022-08-20T12:18:43.092Z,3.20
2022-08-20T12:19:42.172Z,3.00
2022-08-20T12:20:42.158Z,2.80
2022-08-20T12:21:42.191Z,3.30
2022-08-20T12:22:42.072Z,2.80
2022-08-20T12:23:42.245Z,2.90
2022-08-20T12:24:42.081Z,2.80
2022-08-20T12:25:42.024Z,2.40
2022-08-20T12:26:42.012Z,2.10
2022-08-20T12:27:42.003Z,1.80
2022-08-20T12:28:42.074Z,2.50
2022-08-20T12:29:42.002Z,2.10
2022-08-20T12:30:42.050Z,2.10
2022-08-20T12:31:41.955Z,2.20
2022-08-20T12:32:42.065Z,2.60
2022-08-20T12:33:44.393Z,2.30
2022-08-20T12:34:42.202Z,1.90
2022-08-20T12:35:42.184Z,2.30
2022-08-20T12:36:41.880Z,2.30
2022-08-20T12:37:41.875Z,2.50
2022-08-20T12:38:41.855Z,2.10
2022-08-20T12:39:41.961Z,2.20
2022-08-20T12:40:42.056Z,1.80
2022-08-20T12:41:42.646Z,2.20
2022-08-20T12:42:45.296Z,2.00
2022-08-20T12:43:42.346Z,1.70
2022-08-20T12:44:43.106Z,2.10
2022-08-20T12:45:41.829Z,2.10
2022-08-20T12:46:41.757Z,2.20
2022-08-20T12:47:44.833Z,1.80
2022-08-20T12:48:41.827Z,1.80
2022-08-20T12:49:41.727Z,2.30
2022-08-20T12:50:41.986Z,2.30
2022-08-20T12:51:41.947Z,2.30
2022-08-20T12:52:41.782Z,2.10
2022-08-20T12:53:41.669Z,2.20
2022-08-20T12:54:41.762Z,2.60
2022-08-20T12:55:41.735Z,2.50
2022-08-20T12:56:42.389Z,2.70
2022-08-20T12:57:41.621Z,2.10
2022-08-20T12:58:41.659Z,2.70
2022-08-20T12:59:44.702Z,2.20
2022-08-20T13:00:43.303Z,2.60
2022-08-20T13:01:45.867Z,2.80
2022-08-20T13:02:41.607Z,2.80
2022-08-20T13:03:45.193Z,2.60
2022-08-20T13:04:41.531Z,2.20
2022-08-20T13:05:41.681Z,2.10
2022-08-20T13:06:41.601Z,2.30
2022-08-20T13:07:41.650Z,1.70
2022-08-20T13:08:42.510Z,2.50
2022-08-20T13:09:42.269Z,2.50
2022-08-20T13:10:41.741Z,2.20
2022-08-20T13:11:41.492Z,2.00
2022-08-20T13:12:41.462Z,1.90
2022-08-20T13:13:41.412Z,1.90
2022-08-20T13:14:41.586Z,1.70
2022-08-20T13:15:41.524Z,2.00
2022-08-20T13:16:41.512Z,1.90
2022-08-20T13:17:41.443Z,2.00
2022-08-20T13:18:42.274Z,1.70